Time;durP1;ratioP1;P1;durP2;ratioP2;P2;SDS_P1;SDS_P2;PMS_P1;PMS_P2;Temp;Humidity;BMP_temperature;BMP_pressure;BME280_temperature;BME280_humidity;BME280_pressure;Samples;Min_cycle;Max_cycle;Signal;HPM_P1;HPM_P2
2023/03/09 00:00:59;;;;;;;2.03;1.00;;;24.50;41.50;;;;;;4994995;28;20276;-68
2023/03/09 00:03:29;;;;;;;3.47;1.00;;;24.60;42.10;;;;;;4996938;28;20269;-65
2023/03/09 00:05:59;;;;;;;6.07;1.17;;;24.60;41.80;;;;;;4991820;28;20178;-67
2023/03/09 00:08:29;;;;;;;6.70;1.07;;;24.70;42.20;;;;;;5004748;28;20181;-70
2023/03/09 00:10:56;;;;;;;3.30;1.03;;;24.80;42.10;;;;;;4990577;28;20182;-68
2023/03/09 00:13:24;;;;;;;6.03;1.13;;;24.90;41.20;;;;;;4991294;28;20303;-68
2023/03/09 00:15:51;;;;;;;10.33;4.43;;;24.90;41.20;;;;;;4993844;28;20206;-72
2023/03/09 00:18:23;;;;;;;4.40;1.23;;;25.00;39.50;;;;;;5002940;28;20189;-68
2023/03/09 00:20:50;;;;;;;3.07;1.30;;;25.20;38.70;;;;;;5000907;28;20182;-69
2023/03/09 00:23:19;;;;;;;1.97;0.97;;;25.20;37.60;;;;;;4993808;28;20190;-67
2023/03/09 00:25:46;;;;;;;5.30;0.93;;;25.10;39.10;;;;;;5004058;28;20694;-75
2023/03/09 00:28:16;;;;;;;6.17;4.67;;;25.00;38.80;;;;;;4994946;28;20197;-68
2023/03/09 00:30:44;;;;;;;3.77;1.30;;;25.00;39.10;;;;;;4993544;28;20201;-70
2023/03/09 00:33:11;;;;;;;7.10;1.10;;;25.10;38.90;;;;;;5006924;28;20177;-66
2023/03/09 00:35:38;;;;;;;3.97;1.37;;;25.40;38.60;;;;;;4999390;28;20751;-68
2023/03/09 00:38:06;;;;;;;6.00;1.03;;;25.70;37.10;;;;;;5000869;28;20178;-70
2023/03/09 00:40:33;;;;;;;2.70;1.10;;;25.80;36.60;;;;;;4993420;28;20186;-68
2023/03/09 00:43:01;;;;;;;3.40;1.23;;;25.70;36.60;;;;;;4992573;28;20174;-66
2023/03/09 00:45:29;;;;;;;5.30;1.00;;;25.90;36.90;;;;;;5013445;28;20268;-71
2023/03/09 00:47:56;;;;;;;3.33;1.07;;;25.90;35.60;;;;;;4980388;28;20579;-75
2023/03/09 00:50:23;;;;;;;3.63;1.20;;;25.80;35.80;;;;;;5013209;28;20635;-68
2023/03/09 00:52:51;;;;;;;2.10;0.90;;;25.70;36.80;;;;;;5005850;28;20557;-68
2023/03/09 00:55:18;;;;;;;6.43;0.90;;;25.90;36.30;;;;;;5011687;28;20267;-68
2023/03/09 00:57:45;;;;;;;2.53;0.97;;;26.10;36.00;;;;;;4991944;28;21027;-68
2023/03/09 01:00:13;;;;;;;5.17;1.10;;;26.20;36.10;;;;;;4992524;28;20197;-68
2023/03/09 01:02:40;;;;;;;3.57;1.00;;;26.10;36.80;;;;;;4986368;28;20651;-68
2023/03/09 01:05:09;;;;;;;1.70;0.90;;;26.00;36.80;;;;;;4983646;28;20197;-65
2023/03/09 01:07:37;;;;;;;11.20;1.77;;;25.60;36.80;;;;;;4995003;28;20268;-67
2023/03/09 01:10:06;;;;;;;6.13;2.37;;;25.70;37.30;;;;;;4991037;28;20665;-68
2023/03/09 01:12:40;;;;;;;3.47;1.03;;;25.70;37.30;;;;;;4991840;28;20225;-68
2023/03/09 01:15:09;;;;;;;2.67;0.93;;;25.80;37.50;;;;;;4971393;28;20232;-69
2023/03/09 01:17:36;;;;;;;3.53;0.90;;;26.00;36.30;;;;;;4992660;28;20634;-68
2023/03/09 01:20:04;;;;;;;2.23;1.00;;;26.30;36.00;;;;;;4990694;28;20185;-66
2023/03/09 01:22:31;;;;;;;7.27;1.17;;;26.30;35.90;;;;;;4988676;28;20186;-67
2023/03/09 01:24:59;;;;;;;9.23;0.93;;;26.60;35.00;;;;;;4984359;28;20563;-70
2023/03/09 01:27:26;;;;;;;2.40;0.93;;;26.90;34.70;;;;;;4992713;28;20182;-68
2023/03/09 01:29:53;;;;;;;2.57;0.80;;;26.60;34.20;;;;;;4991809;28;20720;-66
2023/03/09 01:32:21;;;;;;;1.73;0.70;;;26.40;34.70;;;;;;4991024;28;20182;-68
2023/03/09 01:34:48;;;;;;;3.43;0.70;;;26.60;34.90;;;;;;4995196;28;20208;-72
2023/03/09 01:37:15;;;;;;;2.33;0.83;;;26.90;35.10;;;;;;4988267;28;20195;-68
2023/03/09 01:39:42;;;;;;;2.20;1.03;;;27.20;34.70;;;;;;4988301;28;20228;-69
2023/03/09 01:42:10;;;;;;;2.47;1.00;;;27.00;35.00;;;;;;4985024;28;20617;-68
2023/03/09 01:44:38;;;;;;;3.20;0.93;;;26.80;34.90;;;;;;4986920;28;20182;-68
2023/03/09 01:47:05;;;;;;;5.77;1.10;;;27.10;34.90;;;;;;4979376;28;20191;-66
2023/03/09 01:49:49;;;;;;;7.77;1.07;;;26.80;34.50;;;;;;4990401;28;20205;-67
2023/03/09 01:52:27;;;;;;;4.40;1.00;;;26.80;33.90;;;;;;4989699;28;20195;-67
2023/03/09 01:55:03;;;;;;;5.53;1.10;;;27.00;34.30;;;;;;4982106;28;20259;-69
2023/03/09 01:57:39;;;;;;;3.20;0.80;;;27.10;32.90;;;;;;4990735;28;20189;-69
2023/03/09 02:00:11;;;;;;;4.40;0.90;;;27.10;33.00;;;;;;4986421;28;20181;-71
2023/03/09 02:02:43;;;;;;;1.53;0.67;;;26.90;33.80;;;;;;4987399;28;20661;-66
2023/03/09 02:05:18;;;;;;;2.43;0.90;;;27.20;32.30;;;;;;4988128;28;20679;-66
2023/03/09 02:07:48;;;;;;;3.20;0.70;;;27.20;32.10;;;;;;4987896;28;20212;-67
2023/03/09 02:10:57;;;;;;;4.03;0.70;;;27.30;32.30;;;;;;4990435;28;20178;-63
2023/03/09 02:13:37;;;;;;;3.53;0.80;;;27.60;32.20;;;;;;4985070;28;20265;-67
2023/03/09 02:16:05;;;;;;;1.87;0.70;;;27.60;31.90;;;;;;4986996;28;20221;-67
2023/03/09 02:18:32;;;;;;;4.57;1.00;;;27.70;31.20;;;;;;4994539;28;20662;-65
2023/03/09 02:21:23;;;;;;;4.03;0.80;;;27.80;31.30;;;;;;5004380;28;20181;-66
2023/03/09 02:24:28;;;;;;;1.83;0.80;;;27.70;31.70;;;;;;4973815;28;20226;-65
2023/03/09 02:27:21;;;;;;;5.90;0.97;;;27.80;31.10;;;;;;4953254;28;20193;-65
2023/03/09 02:29:50;;;;;;;5.57;0.80;;;28.20;31.00;;;;;;4970494;28;20194;-68
2023/03/09 02:32:17;;;;;;;2.17;0.80;;;28.60;29.80;;;;;;5006516;28;20181;-67
2023/03/09 02:34:45;;;;;;;1.53;0.70;;;28.60;30.40;;;;;;5012513;28;20166;-67
2023/03/09 02:37:33;;;;;;;5.13;0.70;;;28.40;30.30;;;;;;5012584;28;20578;-68
2023/03/09 02:40:16;;;;;;;3.90;0.93;;;28.80;29.30;;;;;;5012351;28;20359;-65
2023/03/09 02:42:45;;;;;;;4.70;0.90;;;28.90;29.80;;;;;;4987578;28;20238;-67
2023/03/09 02:45:16;;;;;;;4.10;0.80;;;29.00;28.10;;;;;;4987413;28;20668;-69
2023/03/09 02:47:46;;;;;;;4.50;0.63;;;29.20;28.90;;;;;;4988201;28;20607;-68
2023/03/09 02:50:18;;;;;;;1.70;0.80;;;29.40;28.90;;;;;;4992886;28;20185;-67
2023/03/09 02:52:49;;;;;;;8.07;1.27;;;29.40;28.70;;;;;;4988103;28;20243;-68
2023/03/09 02:55:17;;;;;;;3.40;0.75;;;29.40;28.60;;;;;;4991147;28;20272;-69
2023/03/09 02:57:44;;;;;;;1.13;0.60;;;29.10;28.70;;;;;;4994041;28;20551;-69
2023/03/09 03:00:14;;;;;;;3.97;1.00;;;29.70;28.20;;;;;;4998527;28;20181;-66
2023/03/09 03:02:42;;;;;;;1.33;0.57;;;29.50;27.60;;;;;;4970601;28;20189;-70
2023/03/09 03:05:10;;;;;;;1.63;0.80;;;29.30;28.10;;;;;;4992500;28;20237;-69
2023/03/09 03:07:37;;;;;;;6.38;0.68;;;29.60;28.20;;;;;;4974498;28;20217;-71
2023/03/09 03:10:09;;;;;;;2.90;0.88;;;30.10;27.70;;;;;;4993690;28;20185;-66
2023/03/09 03:12:36;;;;;;;3.97;0.88;;;30.30;27.20;;;;;;4985645;28;20261;-71
2023/03/09 03:15:05;;;;;;;3.17;0.70;;;30.70;27.20;;;;;;4987984;28;20229;-64
2023/03/09 03:17:32;;;;;;;3.30;1.00;;;30.30;26.80;;;;;;4994096;28;20186;-70
2023/03/09 03:19:59;;;;;;;2.22;0.80;;;30.40;26.50;;;;;;4997575;28;20540;-74
2023/03/09 03:22:27;;;;;;;4.22;0.95;;;30.60;26.40;;;;;;5004795;28;20188;-74
2023/03/09 03:24:54;;;;;;;3.58;0.80;;;31.00;25.90;;;;;;5005708;28;20206;-68
2023/03/09 03:27:21;;;;;;;3.67;0.68;;;31.30;25.80;;;;;;4993635;28;20185;-71
2023/03/09 03:29:53;;;;;;;3.30;0.80;;;31.30;25.10;;;;;;4987993;28;20238;-70
2023/03/09 03:32:22;;;;;;;7.88;0.82;;;31.40;25.10;;;;;;4974977;28;20535;-68
2023/03/09 03:34:49;;;;;;;2.63;0.60;;;31.00;25.40;;;;;;4973274;28;20719;-70
2023/03/09 03:37:17;;;;;;;2.35;0.82;;;30.90;25.30;;;;;;4991861;28;20236;-77
2023/03/09 03:39:44;;;;;;;5.55;0.98;;;31.40;25.10;;;;;;4992532;28;20198;-79
2023/03/09 03:42:11;;;;;;;2.53;0.73;;;30.90;25.10;;;;;;4999017;28;20546;-70
2023/03/09 03:44:39;;;;;;;2.47;0.70;;;31.00;25.10;;;;;;5007922;28;20233;-72
2023/03/09 03:47:06;;;;;;;16.90;1.63;;;31.40;24.80;;;;;;5004559;28;20180;-73
2023/03/09 03:49:33;;;;;;;4.20;0.70;;;31.90;24.50;;;;;;4998499;28;20236;-67
2023/03/09 03:52:01;;;;;;;4.75;1.17;;;32.30;24.20;;;;;;5010149;28;20240;-69
2023/03/09 03:54:28;;;;;;;3.35;1.35;;;31.70;30.80;;;;;;5014712;28;20690;-72
2023/03/09 03:56:55;;;;;;;3.70;1.10;;;31.30;32.70;;;;;;5007329;28;20626;-67
2023/03/09 03:59:23;;;;;;;4.88;1.13;;;31.10;32.70;;;;;;4992118;28;20178;-70
2023/03/09 04:01:50;;;;;;;6.43;1.50;;;30.90;33.60;;;;;;4994574;28;20179;-73
2023/03/09 04:04:18;;;;;;;7.18;1.30;;;31.00;33.40;;;;;;4995960;28;20182;-71
2023/03/09 04:06:48;;;;;;;4.85;1.20;;;30.70;33.60;;;;;;4998695;28;20200;-72
2023/03/09 04:09:15;;;;;;;2.53;1.10;;;30.10;34.80;;;;;;4988958;28;20198;-70
2023/03/09 04:11:45;;;;;;;3.95;0.90;;;29.90;35.80;;;;;;5001854;28;20218;-71
2023/03/09 04:14:15;;;;;;;4.13;1.15;;;30.30;34.60;;;;;;4974305;28;20198;-74
2023/03/09 04:16:42;;;;;;;4.38;0.98;;;30.60;34.20;;;;;;5000678;28;20308;-69
2023/03/09 04:19:10;;;;;;;4.43;1.33;;;30.10;34.90;;;;;;5013784;28;20185;-74
2023/03/09 04:21:40;;;;;;;4.25;0.90;;;30.30;34.60;;;;;;4997247;28;20229;-69
2023/03/09 04:24:08;;;;;;;2.50;0.93;;;30.30;35.40;;;;;;5013970;28;20232;-74
2023/03/09 04:26:35;;;;;;;2.72;1.00;;;30.80;33.70;;;;;;5014014;28;20261;-73
2023/03/09 04:29:02;;;;;;;4.55;1.02;;;31.30;32.80;;;;;;5014256;28;20181;-78
2023/03/09 04:31:30;;;;;;;2.55;0.90;;;31.20;33.40;;;;;;5011404;28;20224;-71
2023/03/09 04:33:57;;;;;;;3.70;0.77;;;31.30;33.10;;;;;;4995199;28;20644;-71
2023/03/09 04:36:24;;;;;;;2.15;1.02;;;31.40;33.00;;;;;;5013981;28;20216;-73
2023/03/09 04:38:53;;;;;;;4.95;1.00;;;31.00;32.90;;;;;;5013885;28;20570;-75
2023/03/09 04:41:20;;;;;;;2.58;0.88;;;30.20;34.00;;;;;;5012307;28;20280;-65
2023/03/09 04:43:48;;;;;;;2.55;0.90;;;29.80;34.60;;;;;;5013888;28;20177;-72
2023/03/09 04:46:15;;;;;;;6.30;0.90;;;30.00;34.80;;;;;;5005220;28;20264;-71
2023/03/09 04:48:44;;;;;;;3.10;0.90;;;30.00;34.80;;;;;;4997945;28;20457;-70
2023/03/09 04:51:12;;;;;;;3.95;1.08;;;29.30;35.90;;;;;;4980652;28;20194;-67
2023/03/09 04:53:42;;;;;;;5.00;1.50;;;29.70;35.40;;;;;;5000512;28;20228;-69
2023/03/09 04:56:10;;;;;;;5.90;1.20;;;30.00;34.80;;;;;;5006648;28;20586;-71
2023/03/09 04:58:37;;;;;;;7.13;3.25;;;30.10;34.00;;;;;;4995707;28;20185;-67
2023/03/09 05:01:07;;;;;;;3.13;1.73;;;29.40;35.40;;;;;;5011955;28;20545;-72
2023/03/09 05:03:37;;;;;;;7.45;1.63;;;29.40;35.30;;;;;;4996452;28;20264;-69
2023/03/09 05:06:05;;;;;;;4.07;1.08;;;30.20;34.20;;;;;;5002107;28;20192;-78
2023/03/09 05:08:32;;;;;;;4.40;1.23;;;30.80;33.10;;;;;;4999232;28;20257;-71
2023/03/09 05:11:00;;;;;;;4.93;0.98;;;31.50;31.40;;;;;;5013269;28;20189;-69
2023/03/09 05:13:27;;;;;;;6.55;1.02;;;31.70;31.40;;;;;;4996632;28;20222;-71
2023/03/09 05:15:54;;;;;;;3.75;1.05;;;31.80;31.10;;;;;;5012320;28;20621;-74
2023/03/09 05:18:22;;;;;;;4.03;1.08;;;31.90;31.10;;;;;;5012452;28;20675;-71
2023/03/09 05:20:49;;;;;;;3.17;1.10;;;31.50;31.50;;;;;;5008696;28;20182;-74
2023/03/09 05:23:16;;;;;;;6.22;1.20;;;31.70;30.70;;;;;;4992400;28;20244;-69
2023/03/09 05:25:46;;;;;;;4.60;1.10;;;32.00;30.30;;;;;;5001816;28;20279;-74
2023/03/09 05:28:14;;;;;;;4.00;1.20;;;32.10;30.40;;;;;;5013183;28;20238;-65
2023/03/09 05:30:41;;;;;;;3.83;1.02;;;32.10;30.10;;;;;;5012326;28;20185;-69
2023/03/09 05:33:08;;;;;;;7.05;1.25;;;31.60;30.10;;;;;;5012755;28;20312;-75
2023/03/09 05:35:36;;;;;;;2.70;0.95;;;30.80;31.20;;;;;;5012864;28;20217;-73
2023/03/09 05:38:03;;;;;;;4.72;1.00;;;30.60;31.70;;;;;;5013169;28;20546;-70
2023/03/09 05:40:30;;;;;;;4.50;1.20;;;29.00;33.40;;;;;;4995955;28;20550;-69
2023/03/09 05:42:58;;;;;;;5.70;1.30;;;28.80;33.80;;;;;;4993845;28;20213;-76
2023/03/09 05:45:25;;;;;;;4.35;1.20;;;29.30;33.70;;;;;;5002842;28;20267;-70
2023/03/09 05:47:55;;;;;;;6.05;1.20;;;29.90;32.90;;;;;;4983571;28;20190;-73
2023/03/09 05:50:22;;;;;;;7.07;1.30;;;30.20;32.20;;;;;;5000814;28;20181;-76
2023/03/09 05:52:50;;;;;;;4.57;1.02;;;30.00;32.50;;;;;;5006413;28;20288;-72
2023/03/09 05:55:18;;;;;;;5.07;1.20;;;30.20;32.00;;;;;;4992111;28;20283;-72
2023/03/09 05:57:45;;;;;;;7.68;1.40;;;31.20;31.40;;;;;;4993710;28;20212;-71
2023/03/09 06:00:14;;;;;;;3.35;1.13;;;31.20;31.20;;;;;;4994847;28;20190;-71
2023/03/09 06:02:41;;;;;;;4.18;1.23;;;31.60;30.10;;;;;;4982074;28;20208;-71
2023/03/09 06:05:09;;;;;;;5.70;1.35;;;31.70;29.60;;;;;;4988498;28;20718;-70
2023/03/09 06:07:36;;;;;;;5.13;1.23;;;31.80;30.20;;;;;;5000189;28;20194;-72
2023/03/09 06:10:05;;;;;;;4.82;1.02;;;31.20;29.90;;;;;;4996754;28;20201;-74
2023/03/09 06:12:36;;;;;;;4.80;1.05;;;31.50;30.20;;;;;;4990498;28;20260;-72
2023/03/09 06:15:03;;;;;;;3.67;0.95;;;32.30;29.10;;;;;;4994979;28;20249;-71
2023/03/09 06:17:32;;;;;;;8.13;1.38;;;32.00;28.90;;;;;;5009015;28;20181;-75
2023/03/09 06:19:59;;;;;;;4.18;1.20;;;32.10;29.20;;;;;;4997377;28;20194;-72
2023/03/09 06:22:26;;;;;;;4.18;1.20;;;32.20;29.20;;;;;;4975410;28;20196;-72
2023/03/09 06:24:53;;;;;;;3.95;1.27;;;31.90;29.70;;;;;;4998028;28;20268;-68
2023/03/09 06:27:21;;;;;;;6.63;1.00;;;32.60;28.30;;;;;;4995633;28;20209;-72
2023/03/09 06:29:48;;;;;;;3.45;1.00;;;32.60;28.20;;;;;;5012423;28;20173;-69
2023/03/09 06:32:18;;;;;;;3.90;1.00;;;32.50;28.50;;;;;;4995595;28;20263;-69
2023/03/09 06:34:46;;;;;;;3.85;0.82;;;32.80;28.00;;;;;;4991441;28;20518;-69
2023/03/09 06:37:13;;;;;;;5.78;1.20;;;32.20;28.70;;;;;;4999769;28;20277;-69
2023/03/09 06:39:43;;;;;;;3.67;1.05;;;32.80;28.20;;;;;;4999269;28;20265;-76
2023/03/09 06:42:12;;;;;;;2.70;1.17;;;31.90;28.80;;;;;;5008106;28;20272;-69
2023/03/09 06:44:39;;;;;;;5.60;1.00;;;30.40;30.20;;;;;;5015283;28;20194;-71
2023/03/09 06:47:07;;;;;;;2.53;0.90;;;30.90;29.70;;;;;;4999915;28;20208;-69
2023/03/09 06:49:34;;;;;;;5.55;1.25;;;31.20;29.00;;;;;;5008755;28;20212;-69
2023/03/09 06:52:01;;;;;;;5.65;1.20;;;30.10;30.30;;;;;;4997990;28;20200;-68
2023/03/09 06:54:29;;;;;;;4.40;0.93;;;31.30;28.80;;;;;;5016001;28;20173;-69
2023/03/09 06:56:57;;;;;;;6.05;1.20;;;31.30;28.90;;;;;;5015765;28;20702;-73
2023/03/09 06:59:24;;;;;;;3.50;1.00;;;31.20;29.30;;;;;;4994639;28;20579;-70
2023/03/09 07:01:53;;;;;;;6.25;1.75;;;30.70;30.10;;;;;;4990100;28;20197;-68
2023/03/09 07:04:21;;;;;;;6.75;1.30;;;30.00;31.80;;;;;;4995576;28;20518;-68
2023/03/09 07:06:48;;;;;;;9.52;1.27;;;29.20;33.40;;;;;;5004785;28;20583;-67
2023/03/09 07:09:16;;;;;;;3.22;1.20;;;29.30;33.40;;;;;;4998990;28;20682;-68
2023/03/09 07:11:43;;;;;;;4.80;1.30;;;30.00;32.90;;;;;;5005251;28;20229;-68
2023/03/09 07:14:16;;;;;;;6.72;1.35;;;29.40;33.60;;;;;;5011974;28;20647;-68
2023/03/09 07:16:44;;;;;;;3.70;1.42;;;29.40;33.80;;;;;;4992785;28;20603;-68
2023/03/09 07:19:11;;;;;;;2.23;0.80;;;29.00;34.00;;;;;;5011312;28;20177;-67
2023/03/09 07:21:39;;;;;;;3.67;1.20;;;28.70;34.40;;;;;;5004566;28;20647;-66
2023/03/09 07:24:07;;;;;;;4.35;1.40;;;28.70;34.90;;;;;;4998603;28;20236;-67
2023/03/09 07:26:37;;;;;;;4.45;1.20;;;28.30;35.70;;;;;;5010978;28;20245;-68
2023/03/09 07:29:05;;;;;;;2.63;1.00;;;28.90;35.40;;;;;;5013370;28;20251;-68
2023/03/09 07:31:32;;;;;;;5.97;1.20;;;28.70;35.70;;;;;;5003480;28;20200;-67
2023/03/09 07:34:00;;;;;;;6.23;1.37;;;27.80;36.50;;;;;;5007489;28;20739;-68
2023/03/09 07:36:27;;;;;;;6.47;1.63;;;28.30;36.50;;;;;;4986097;28;20621;-67
2023/03/09 07:38:55;;;;;;;4.73;1.57;;;28.30;36.60;;;;;;4994415;28;20845;-67
2023/03/09 07:41:22;;;;;;;5.37;1.70;;;27.80;37.40;;;;;;4990133;28;20192;-67
2023/03/09 07:43:49;;;;;;;3.20;1.20;;;27.70;37.70;;;;;;4994637;28;20205;-68
2023/03/09 07:46:18;;;;;;;3.47;1.43;;;27.70;37.70;;;;;;4976279;28;20177;-68
2023/03/09 07:48:46;;;;;;;3.50;1.40;;;26.70;38.40;;;;;;4994460;28;20178;-66
2023/03/09 07:51:14;;;;;;;7.43;1.40;;;25.80;39.20;;;;;;4993966;28;20209;-69
2023/03/09 07:53:41;;;;;;;7.23;1.40;;;25.00;41.60;;;;;;4995408;28;20224;-66
2023/03/09 07:56:10;;;;;;;6.60;1.30;;;24.70;43.20;;;;;;4977195;28;20218;-70
2023/03/09 07:58:39;;;;;;;6.53;1.63;;;24.70;43.50;;;;;;4995355;28;20185;-68
2023/03/09 08:01:15;;;;;;;2.83;1.23;;;24.80;44.20;;;;;;4976604;28;20240;-67
2023/03/09 08:03:42;;;;;;;3.37;1.43;;;24.60;43.80;;;;;;5005456;28;20188;-68
2023/03/09 08:06:10;;;;;;;2.77;1.20;;;24.20;45.50;;;;;;5004004;28;20993;-68
2023/03/09 08:08:37;;;;;;;4.37;1.33;;;23.90;46.30;;;;;;4999387;28;20559;-67
2023/03/09 08:11:06;;;;;;;4.20;1.20;;;23.90;46.50;;;;;;5008107;28;20189;-67
2023/03/09 08:13:36;;;;;;;6.17;1.67;;;24.00;46.60;;;;;;5004948;28;20312;-67
2023/03/09 08:16:07;;;;;;;2.87;1.37;;;24.00;46.70;;;;;;4996562;28;20263;-68
2023/03/09 08:18:36;;;;;;;9.67;5.50;;;23.80;46.60;;;;;;4999626;28;20184;-67
2023/03/09 08:21:14;;;;;;;5.10;2.10;;;23.80;46.70;;;;;;4992027;28;20186;-67
2023/03/09 08:23:43;;;;;;;5.93;1.73;;;23.80;46.90;;;;;;4995887;28;20178;-66
2023/03/09 08:26:16;;;;;;;5.30;1.10;;;23.80;46.80;;;;;;5014366;28;20181;-67
2023/03/09 08:28:47;;;;;;;8.40;4.33;;;23.50;47.10;;;;;;5008760;28;20189;-67
2023/03/09 08:31:16;;;;;;;8.47;3.97;;;23.50;47.30;;;;;;4988089;28;20656;-76
2023/03/09 08:33:45;;;;;;;4.47;2.00;;;23.40;47.70;;;;;;4994320;28;20188;-77
2023/03/09 08:36:20;;;;;;;3.27;1.23;;;23.40;47.20;;;;;;4992906;28;20237;-75
2023/03/09 08:38:49;;;;;;;9.10;1.50;;;23.40;46.60;;;;;;4991739;28;20182;-73
2023/03/09 08:41:17;;;;;;;5.57;1.40;;;23.30;47.00;;;;;;4993417;28;20186;-66
2023/03/09 08:43:46;;;;;;;4.33;1.37;;;23.30;46.90;;;;;;4994258;28;20178;-76
2023/03/09 08:46:13;;;;;;;4.30;1.30;;;23.30;47.20;;;;;;4997506;28;20271;-71
2023/03/09 08:48:41;;;;;;;4.77;1.40;;;23.30;47.50;;;;;;4995717;28;20273;-75
2023/03/09 08:51:10;;;;;;;5.90;1.70;;;23.40;46.80;;;;;;4995848;28;20193;-70
2023/03/09 08:53:38;;;;;;;6.47;1.27;;;23.20;47.20;;;;;;5001387;28;20192;-68
2023/03/09 08:56:11;;;;;;;4.90;1.53;;;23.10;47.60;;;;;;5011647;28;20223;-73
2023/03/09 08:58:40;;;;;;;5.57;1.53;;;23.10;47.90;;;;;;5001357;28;20189;-69
2023/03/09 09:01:09;;;;;;;3.67;1.30;;;23.00;48.40;;;;;;4996992;28;20232;-67
2023/03/09 09:03:40;;;;;;;3.73;1.40;;;23.00;48.60;;;;;;5011735;28;20702;-68
2023/03/09 09:06:10;;;;;;;5.63;1.63;;;23.10;48.80;;;;;;5002927;28;20240;-72
2023/03/09 09:08:38;;;;;;;5.57;1.50;;;23.10;48.60;;;;;;4996515;28;20269;-69
2023/03/09 09:11:07;;;;;;;5.00;1.97;;;23.10;49.00;;;;;;5013508;28;20683;-68
2023/03/09 09:13:36;;;;;;;7.63;1.90;;;23.10;48.60;;;;;;5012797;28;20768;-68
2023/03/09 09:16:05;;;;;;;7.00;1.53;;;23.00;48.90;;;;;;4995720;28;20370;-71
2023/03/09 09:18:37;;;;;;;4.03;1.43;;;23.00;49.10;;;;;;5013149;28;20208;-69
2023/03/09 09:21:07;;;;;;;2.67;1.43;;;22.90;49.20;;;;;;5007988;28;20178;-67
2023/03/09 09:23:40;;;;;;;6.27;1.70;;;22.90;49.20;;;;;;5000459;28;20173;-67
2023/03/09 09:26:08;;;;;;;3.40;1.30;;;22.90;49.40;;;;;;5005482;28;20181;-70
2023/03/09 09:28:35;;;;;;;6.40;1.80;;;22.90;49.10;;;;;;5012737;28;20174;-67
2023/03/09 09:31:04;;;;;;;5.67;1.53;;;22.90;49.10;;;;;;5013188;28;20683;-69
2023/03/09 09:33:34;;;;;;;6.53;1.60;;;22.90;49.20;;;;;;5013239;28;20173;-68
2023/03/09 09:36:04;;;;;;;6.90;1.50;;;22.80;49.70;;;;;;5013134;28;20248;-67
2023/03/09 09:38:35;;;;;;;6.97;1.70;;;22.80;50.10;;;;;;5006635;28;20260;-67
2023/03/09 09:41:18;;;;;;;5.53;1.40;;;22.80;50.00;;;;;;5013328;28;20207;-67
2023/03/09 09:43:50;;;;;;;6.13;1.60;;;22.80;50.00;;;;;;5012792;28;20227;-67
2023/03/09 09:46:20;;;;;;;6.10;1.70;;;22.80;50.20;;;;;;5000610;28;20189;-66
2023/03/09 09:48:49;;;;;;;5.57;2.20;;;22.70;50.60;;;;;;5012792;28;20173;-67
2023/03/09 09:51:42;;;;;;;8.33;2.23;;;22.60;51.00;;;;;;4989649;28;20186;-66
2023/03/09 09:54:26;;;;;;;5.00;2.10;;;22.50;51.30;;;;;;4992007;28;20240;-68
2023/03/09 09:56:59;;;;;;;6.40;1.97;;;22.50;51.60;;;;;;4997349;28;20626;-69
2023/03/09 09:59:27;;;;;;;5.20;1.97;;;22.40;51.80;;;;;;4989460;28;20202;-68
2023/03/09 10:01:58;;;;;;;7.03;2.13;;;22.40;51.90;;;;;;4994943;28;20190;-76
2023/03/09 10:04:38;;;;;;;8.57;2.53;;;22.40;52.20;;;;;;4993554;28;20589;-68
2023/03/09 10:07:21;;;;;;;5.23;2.53;;;22.40;52.70;;;;;;4987211;28;20181;-68
2023/03/09 10:10:03;;;;;;;5.77;2.47;;;22.40;53.20;;;;;;4993931;28;20181;-68
2023/03/09 10:12:30;;;;;;;5.07;1.70;;;22.30;53.00;;;;;;4993026;28;20306;-68
2023/03/09 10:15:06;;;;;;;3.87;1.70;;;22.30;53.10;;;;;;4989552;28;20198;-67
2023/03/09 10:17:50;;;;;;;4.73;1.77;;;22.30;53.30;;;;;;5009290;28;20199;-68
2023/03/09 10:20:25;;;;;;;4.57;1.90;;;22.20;53.90;;;;;;5001471;28;20182;-68
2023/03/09 10:22:55;;;;;;;9.33;1.93;;;22.20;54.30;;;;;;4988958;28;20181;-67
2023/03/09 10:25:24;;;;;;;5.67;1.90;;;22.20;54.10;;;;;;5002651;28;20683;-69
2023/03/09 10:28:00;;;;;;;10.67;1.87;;;22.10;54.60;;;;;;5002125;28;20260;-72
2023/03/09 10:30:30;;;;;;;5.53;1.80;;;22.10;54.90;;;;;;4991969;28;20557;-67
2023/03/09 10:33:11;;;;;;;6.83;2.00;;;22.10;54.90;;;;;;4986072;28;20173;-73
2023/03/09 10:35:50;;;;;;;4.80;2.00;;;22.00;55.00;;;;;;4987786;28;20244;-73
2023/03/09 10:38:20;;;;;;;7.27;2.07;;;22.00;55.50;;;;;;4991378;28;20248;-67
2023/03/09 10:40:53;;;;;;;6.60;1.80;;;21.90;55.50;;;;;;4998183;28;20178;-71
2023/03/09 10:43:29;;;;;;;5.90;1.87;;;21.90;56.00;;;;;;4996517;28;20177;-69
2023/03/09 10:46:21;;;;;;;7.03;2.03;;;21.80;56.30;;;;;;4998468;28;20826;-68
2023/03/09 10:48:52;;;;;;;4.33;1.70;;;21.80;56.60;;;;;;4991128;28;20193;-68
2023/03/09 10:51:38;;;;;;;7.60;2.43;;;21.80;56.80;;;;;;4993461;28;20186;-66
2023/03/09 10:54:28;;;;;;;4.60;1.87;;;21.70;57.30;;;;;;5002280;28;20171;-67
2023/03/09 10:56:57;;;;;;;7.50;2.00;;;21.70;57.60;;;;;;4991279;28;20209;-69
2023/03/09 10:59:25;;;;;;;6.20;2.17;;;21.70;57.90;;;;;;4992724;28;20175;-68
2023/03/09 11:02:00;;;;;;;6.50;2.23;;;21.70;58.50;;;;;;4988454;28;20214;-68
2023/03/09 11:04:31;;;;;;;4.10;2.10;;;21.70;58.60;;;;;;4991247;28;20170;-70
2023/03/09 11:07:01;;;;;;;6.13;2.23;;;21.60;58.60;;;;;;4990162;28;20181;-70
2023/03/09 11:09:36;;;;;;;7.93;2.30;;;21.60;58.80;;;;;;4989605;28;20578;-68
2023/03/09 11:12:30;;;;;;;8.10;2.00;;;21.60;59.30;;;;;;4987405;28;20225;-71
2023/03/09 11:15:00;;;;;;;8.00;2.50;;;21.50;59.70;;;;;;4974915;28;20186;-75
2023/03/09 11:17:39;;;;;;;7.17;2.93;;;21.50;60.10;;;;;;4993421;28;20209;-73
2023/03/09 11:20:23;;;;;;;4.77;2.23;;;21.40;60.10;;;;;;4984565;28;20182;-73
2023/03/09 11:23:17;;;;;;;6.07;2.37;;;21.40;60.40;;;;;;4994624;28;20528;-68
2023/03/09 11:25:56;;;;;;;8.23;2.73;;;21.40;60.50;;;;;;4995792;28;20212;-67
2023/03/09 11:28:47;;;;;;;7.80;2.50;;;21.30;60.80;;;;;;4996011;28;20554;-68
2023/03/09 11:31:25;;;;;;;12.93;3.30;;;21.30;61.10;;;;;;4995364;28;20170;-67
2023/03/09 11:33:57;;;;;;;7.07;3.07;;;21.30;61.20;;;;;;4994957;28;20275;-67
2023/03/09 11:36:38;;;;;;;5.17;2.00;;;21.30;61.60;;;;;;4995563;28;20297;-67
2023/03/09 11:39:17;;;;;;;6.37;2.30;;;21.30;61.90;;;;;;4983814;28;20181;-68
2023/03/09 11:41:46;;;;;;;6.90;2.37;;;21.30;61.90;;;;;;4993272;28;20205;-67
2023/03/09 11:44:30;;;;;;;9.90;2.43;;;21.30;62.20;;;;;;4994860;28;20188;-68
2023/03/09 11:47:18;;;;;;;9.53;2.60;;;21.30;62.30;;;;;;4995793;28;20542;-67
2023/03/09 11:49:47;;;;;;;11.23;2.60;;;21.30;62.40;;;;;;4995338;28;20253;-67
2023/03/09 11:52:38;;;;;;;7.70;2.23;;;21.30;63.00;;;;;;4984268;28;20183;-71
2023/03/09 11:55:30;;;;;;;12.63;2.30;;;21.30;62.80;;;;;;4993238;28;20511;-67
2023/03/09 11:58:03;;;;;;;6.53;2.23;;;21.20;63.10;;;;;;4995193;28;20182;-67
2023/03/09 12:00:33;;;;;;;8.30;2.67;;;21.20;63.10;;;;;;4989917;28;20179;-69
2023/03/09 12:03:11;;;;;;;7.77;2.40;;;21.20;63.20;;;;;;4986957;28;20193;-67
2023/03/09 12:05:52;;;;;;;7.80;2.50;;;21.10;63.50;;;;;;4993621;28;20178;-67
2023/03/09 12:08:43;;;;;;;5.37;2.20;;;21.10;64.00;;;;;;4983140;28;20190;-73
2023/03/09 12:11:23;;;;;;;8.43;2.40;;;21.10;64.20;;;;;;4994372;28;20249;-73
2023/03/09 12:14:04;;;;;;;12.10;2.83;;;21.00;64.60;;;;;;4995103;28;20202;-67
2023/03/09 12:16:39;;;;;;;7.80;2.43;;;21.00;64.60;;;;;;4986889;28;20218;-66
2023/03/09 12:19:17;;;;;;;6.73;2.33;;;20.90;65.00;;;;;;4993923;28;20636;-68
2023/03/09 12:22:05;;;;;;;7.17;2.03;;;20.90;65.10;;;;;;4994887;28;20190;-67
2023/03/09 12:24:40;;;;;;;7.07;1.80;;;21.00;65.20;;;;;;4984032;28;20186;-67
2023/03/09 12:27:27;;;;;;;9.40;2.90;;;20.90;65.40;;;;;;4999070;28;20537;-67
2023/03/09 12:30:20;;;;;;;8.33;2.60;;;20.90;65.50;;;;;;4992670;28;20606;-73
2023/03/09 12:32:48;;;;;;;9.30;2.17;;;21.00;65.80;;;;;;4984128;28;21728;-67
2023/03/09 12:35:21;;;;;;;5.03;2.20;;;21.00;66.10;;;;;;4991856;28;20660;-68
2023/03/09 12:37:54;;;;;;;8.77;2.70;;;20.90;66.40;;;;;;4992770;28;20216;-67
2023/03/09 12:40:33;;;;;;;6.77;2.60;;;20.90;66.50;;;;;;4994111;28;20174;-66
2023/03/09 12:43:16;;;;;;;9.63;2.33;;;20.90;66.30;;;;;;4994564;28;20264;-65
2023/03/09 12:45:45;;;;;;;6.20;2.20;;;20.80;66.20;;;;;;4992567;28;20174;-67
2023/03/09 12:48:30;;;;;;;8.13;2.53;;;20.70;66.50;;;;;;4993957;28;20244;-67
2023/03/09 12:51:11;;;;;;;10.47;3.27;;;20.60;66.60;;;;;;4992959;28;20205;-67
2023/03/09 12:54:02;;;;;;;6.57;1.97;;;20.50;67.10;;;;;;4990123;28;20193;-66
2023/03/09 12:56:33;;;;;;;7.77;2.10;;;20.40;66.90;;;;;;4988658;28;20210;-68
2023/03/09 12:59:07;;;;;;;7.50;2.07;;;20.30;67.50;;;;;;4991619;28;20181;-66
2023/03/09 13:01:35;;;;;;;10.67;2.47;;;20.30;67.10;;;;;;4991013;28;20205;-71
2023/03/09 13:04:12;;;;;;;5.73;2.10;;;20.20;67.60;;;;;;4993587;28;20182;-68
2023/03/09 13:06:44;;;;;;;9.77;2.50;;;20.20;67.10;;;;;;4982261;28;20185;-71